Main page
METAR-TAF:

METAR-TAF

Airports :

Ouagadougou, Burkina Faso

Ouagadougou Airport

latitude: 12-21N, longitude: 001-31W, elevation: 316 m

Current weather observation

The report was made 1 hour and 53 minutes ago, at 09:00 UTC
Wind 5 kt from the Northeast, varying between North/Northeast and East
Temperature 28°C
Humidity 25%
Pressure 1014 hPa
Visibility: 4000 m
widespread dust

METAR: DFFD 180900Z 05005KT 020V080 4000 DU NSC 28/06 Q1014 BECMG 6000 NSW

Time: 10:53 (10:53 UTC)

Forecast

The report was made 11 hours and 53 minutes ago, at 23:00 UTC
Forecast valid from 18 at 00 UTC to 19 at 06 UTC
Wind 8 kt from the East
Visibility: 8000 m
Temporary
from 18 at 06 UTC to 18 at 10 UTC
Visibility: 3500 m
widespread dust
Temporary
from 18 at 17 UTC to 18 at 20 UTC
Visibility: 4000 m
widespread dust

TAF: DFFD 172300Z 1800/1906 08008KT 8000 NSC TEMPO 1806/1810 3500 DU TEMPO 1817/1820 4000 DU

Weather observations and forecasts of more than 4000 airports (METAR and TAF reports).

The available stations are represented by yellow and red dots on the map.

Hover mouse over dot to see the name of the station.

Then click to see weather observations and forecasts.

To change the map : click on the green buttons with a black cross to zoom in, on the green button with a dash to zoom out, or on the green arrows for adjacent maps.


METAR-TAF: